Rocky Comfort, Missouri
Current Conditions -  °F | °C
As of 2:15 PM on Thursday 30 Oct 2014 (Local Time) from KHFJ Reporting Station
Clear Clear  
Wind Chill: 66°   Ceiling: Unl
Heat Index: 66°   Visibility: 10mi
Dew Point: 45°   Wind: 18mph
Humidity: 46%   Direction: 260°W
Pressure: 30.02"   Gusts: 24mph
Location:  36.75°N, 94.09°W
Report Text: KHFJ 301915Z AUTO 26016G21KT 10SM CLR 19/07 A3002 RMK AO2
Loading
Personal Weather Stations






























Interactive Weather Map New forecast layout! Learn more

10-Day Weather Forecast

Advertisements
Track Severe Weather on mobile